createdAt,value
2022-12-15T00:02:17.980Z,-7.28
2022-12-15T00:05:03.173Z,-7.29
2022-12-15T00:07:48.019Z,-7.32
2022-12-15T00:10:33.304Z,-7.34
2022-12-15T00:13:18.279Z,-7.37
2022-12-15T00:16:05.745Z,-7.40
2022-12-15T00:18:51.095Z,-7.43
2022-12-15T00:21:36.440Z,-7.45
2022-12-15T00:24:21.330Z,-7.45
2022-12-15T00:27:06.358Z,-7.48
2022-12-15T00:29:51.260Z,-7.50
2022-12-15T00:32:37.936Z,-7.51
2022-12-15T00:35:23.837Z,-7.52
2022-12-15T00:38:08.861Z,-7.54
2022-12-15T00:40:36.352Z,-7.53
2022-12-15T00:43:04.057Z,-7.56
2022-12-15T00:45:45.688Z,-7.59
2022-12-15T00:48:14.515Z,-7.61
2022-12-15T00:50:53.310Z,-7.63
2022-12-15T00:53:38.910Z,-7.65
2022-12-15T00:56:24.223Z,-7.66
2022-12-15T00:59:09.119Z,-7.69
2022-12-15T01:01:54.622Z,-7.70
2022-12-15T01:04:41.743Z,-7.71
2022-12-15T01:07:26.826Z,-7.72
2022-12-15T01:10:11.628Z,-7.74
2022-12-15T01:12:56.713Z,-7.76
2022-12-15T01:15:41.553Z,-7.79
2022-12-15T01:18:26.529Z,-7.78
2022-12-15T01:20:59.739Z,-7.80
2022-12-15T01:23:27.574Z,-7.82
2022-12-15T01:25:55.807Z,-7.82
2022-12-15T01:28:23.501Z,-7.81
2022-12-15T01:30:51.566Z,-7.81
2022-12-15T01:33:20.213Z,-7.83
2022-12-15T01:35:57.801Z,-7.83
2022-12-15T01:38:25.638Z,-7.85
2022-12-15T01:40:53.790Z,-7.84
2022-12-15T01:43:24.379Z,-7.84
2022-12-15T01:46:05.138Z,-7.86
2022-12-15T01:48:45.219Z,-7.88
2022-12-15T01:51:23.282Z,-7.88
2022-12-15T01:53:56.665Z,-7.88
2022-12-15T01:56:27.096Z,-7.89
2022-12-15T01:58:57.390Z,-7.89
2022-12-15T02:01:26.042Z,-7.89
2022-12-15T02:03:53.833Z,-7.89
2022-12-15T02:06:22.821Z,-7.89
2022-12-15T02:08:53.374Z,-7.89
2022-12-15T02:11:48.496Z,-7.91
2022-12-15T02:14:22.046Z,-7.88
2022-12-15T02:17:07.553Z,-7.86
2022-12-15T02:20:15.685Z,-7.85
2022-12-15T02:23:02.016Z,-7.82
2022-12-15T02:25:50.492Z,-7.83
2022-12-15T02:28:32.720Z,-7.85
2022-12-15T02:31:22.405Z,-7.86
2022-12-15T02:33:55.672Z,-7.90
2022-12-15T02:36:29.304Z,-7.92
2022-12-15T02:38:56.843Z,-7.93
2022-12-15T02:41:36.205Z,-7.94
2022-12-15T02:44:10.757Z,-7.94
2022-12-15T02:46:56.409Z,-7.98
2022-12-15T02:49:35.411Z,-8.01
2022-12-15T02:52:19.875Z,-8.01
2022-12-15T02:54:58.922Z,-7.99
2022-12-15T02:57:35.186Z,-7.96
2022-12-15T03:00:06.424Z,-7.96
2022-12-15T03:02:39.246Z,-7.94
2022-12-15T03:05:07.553Z,-7.91
2022-12-15T03:07:35.138Z,-7.91
2022-12-15T03:10:05.866Z,-7.89
2022-12-15T03:12:33.337Z,-7.88
2022-12-15T03:15:02.253Z,-7.88
2022-12-15T03:17:29.693Z,-7.88
2022-12-15T03:19:58.445Z,-7.86
2022-12-15T03:22:25.898Z,-7.86
2022-12-15T03:24:53.328Z,-7.86
2022-12-15T03:27:20.745Z,-7.87
2022-12-15T03:29:48.141Z,-7.87
2022-12-15T03:32:15.626Z,-7.87
2022-12-15T03:34:43.063Z,-7.86
2022-12-15T03:37:12.118Z,-7.83
2022-12-15T03:39:39.626Z,-7.81
2022-12-15T03:42:07.183Z,-7.80
2022-12-15T03:44:34.646Z,-7.81
2022-12-15T03:47:03.762Z,-7.82
2022-12-15T03:49:31.439Z,-7.83
2022-12-15T03:51:58.924Z,-7.84
2022-12-15T03:54:27.680Z,-7.84
2022-12-15T03:56:55.085Z,-7.82
2022-12-15T03:59:22.531Z,-7.82
2022-12-15T04:01:50.121Z,-7.79
2022-12-15T04:04:17.775Z,-7.80
2022-12-15T04:06:45.268Z,-7.80
2022-12-15T04:09:12.707Z,-7.79
2022-12-15T04:11:41.449Z,-7.80
2022-12-15T04:14:10.062Z,-7.80
2022-12-15T04:16:37.584Z,-7.82
2022-12-15T04:19:31.009Z,-7.87
2022-12-15T04:22:01.927Z,-7.92
2022-12-15T04:24:46.731Z,-7.94
2022-12-15T04:27:33.518Z,-7.94
2022-12-15T04:30:18.609Z,-7.98
2022-12-15T04:33:04.008Z,-8.00
2022-12-15T04:35:50.458Z,-8.02
2022-12-15T04:38:35.349Z,-8.05
2022-12-15T04:41:20.800Z,-8.09
2022-12-15T04:44:07.500Z,-8.13
2022-12-15T04:46:52.366Z,-8.18
2022-12-15T04:49:37.384Z,-8.23
2022-12-15T04:52:22.846Z,-8.25
2022-12-15T04:55:08.036Z,-8.25
2022-12-15T04:57:53.976Z,-8.26
2022-12-15T05:00:40.585Z,-8.27
2022-12-15T05:03:26.566Z,-8.27
2022-12-15T05:06:11.924Z,-8.27
2022-12-15T05:08:57.011Z,-8.27
2022-12-15T05:11:41.999Z,-8.26
2022-12-15T05:14:26.922Z,-8.26
2022-12-15T05:17:13.685Z,-8.29
2022-12-15T05:20:00.225Z,-8.30
2022-12-15T05:22:45.246Z,-8.32
2022-12-15T05:25:30.048Z,-8.28
2022-12-15T05:28:14.909Z,-8.26
2022-12-15T05:31:00.260Z,-8.20
2022-12-15T05:33:29.382Z,-8.18
2022-12-15T05:35:58.066Z,-8.17
2022-12-15T05:38:25.563Z,-8.16
2022-12-15T05:40:53.023Z,-8.17
2022-12-15T05:43:24.777Z,-8.16
2022-12-15T05:45:53.919Z,-8.13
2022-12-15T05:48:22.905Z,-8.09
2022-12-15T05:50:51.698Z,-8.05
2022-12-15T05:53:19.121Z,-8.02
2022-12-15T05:55:46.533Z,-8.00
2022-12-15T05:58:13.953Z,-7.99
2022-12-15T06:00:41.369Z,-7.95
2022-12-15T06:03:08.946Z,-7.96
2022-12-15T06:05:36.431Z,-8.01
2022-12-15T06:08:05.597Z,-8.03
2022-12-15T06:10:33.052Z,-8.09
2022-12-15T06:13:00.436Z,-8.13
2022-12-15T06:15:28.417Z,-8.19
2022-12-15T06:17:55.881Z,-8.21
2022-12-15T06:20:23.348Z,-8.20
2022-12-15T06:22:50.847Z,-8.18
2022-12-15T06:25:19.593Z,-8.15
2022-12-15T06:27:47.053Z,-8.12
2022-12-15T06:30:16.122Z,-8.13
2022-12-15T06:32:43.531Z,-8.12
2022-12-15T06:35:10.927Z,-8.12
2022-12-15T06:37:38.366Z,-8.13
2022-12-15T06:40:06.911Z,-8.16
2022-12-15T06:42:35.855Z,-8.18
2022-12-15T06:45:03.765Z,-8.17
2022-12-15T06:47:31.184Z,-8.17
2022-12-15T06:49:58.623Z,-8.19
2022-12-15T06:52:26.079Z,-8.22
2022-12-15T06:54:54.109Z,-8.22
2022-12-15T06:57:21.489Z,-8.22
2022-12-15T06:59:50.344Z,-8.26
2022-12-15T07:02:22.285Z,-8.27
2022-12-15T07:04:52.846Z,-8.28
2022-12-15T07:07:20.654Z,-8.31
2022-12-15T07:09:49.811Z,-8.35
2022-12-15T07:12:18.067Z,-8.39
2022-12-15T07:14:53.048Z,-8.41
2022-12-15T07:17:22.246Z,-8.39
2022-12-15T07:19:50.228Z,-8.42
2022-12-15T07:22:18.586Z,-8.45
2022-12-15T07:24:46.049Z,-8.46
2022-12-15T07:27:13.629Z,-8.45
2022-12-15T07:29:42.301Z,-8.45
2022-12-15T07:32:09.921Z,-8.47
2022-12-15T07:34:38.817Z,-8.48
2022-12-15T07:37:06.344Z,-8.50
2022-12-15T07:39:33.998Z,-8.52
2022-12-15T07:42:01.960Z,-8.55
2022-12-15T07:44:29.942Z,-8.59
2022-12-15T07:46:57.506Z,-8.60
2022-12-15T07:49:25.295Z,-8.61
2022-12-15T07:51:58.520Z,-8.61
2022-12-15T07:54:26.110Z,-8.61
2022-12-15T07:56:53.594Z,-8.60
2022-12-15T07:59:21.046Z,-8.61
2022-12-15T08:01:50.171Z,-8.63
2022-12-15T08:04:18.527Z,-8.61
2022-12-15T08:06:48.457Z,-8.60
2022-12-15T08:09:17.447Z,-8.59
2022-12-15T08:11:44.939Z,-8.56
2022-12-15T08:14:17.215Z,-8.58
2022-12-15T08:16:46.389Z,-8.59
2022-12-15T08:19:16.114Z,-8.60
2022-12-15T08:21:46.728Z,-8.60
2022-12-15T08:24:14.980Z,-8.60
2022-12-15T08:26:45.080Z,-8.56
2022-12-15T08:29:50.821Z,-8.52
2022-12-15T08:32:06.500Z,-8.49
2022-12-15T08:34:34.608Z,-8.49
2022-12-15T08:37:02.638Z,-8.49
2022-12-15T08:39:31.520Z,-8.48
2022-12-15T08:42:00.639Z,-8.48
2022-12-15T08:44:28.220Z,-8.46
2022-12-15T08:46:56.379Z,-8.46
2022-12-15T08:49:24.140Z,-8.47
2022-12-15T08:51:52.421Z,-8.45
2022-12-15T08:54:21.850Z,-8.42
2022-12-15T08:56:50.089Z,-8.41
2022-12-15T08:59:20.259Z,-8.39
2022-12-15T09:01:48.244Z,-8.38
2022-12-15T09:04:19.393Z,-8.33
2022-12-15T09:06:50.354Z,-8.34
2022-12-15T09:09:20.493Z,-8.34
2022-12-15T09:11:49.306Z,-8.30
2022-12-15T09:14:17.263Z,-8.26
2022-12-15T09:16:50.650Z,-8.25
2022-12-15T09:19:19.414Z,-8.23
2022-12-15T09:21:48.814Z,-8.23
2022-12-15T09:24:28.914Z,-8.20
2022-12-15T09:27:04.686Z,-8.15
2022-12-15T09:29:32.942Z,-8.11
2022-12-15T09:32:04.072Z,-8.05
2022-12-15T09:34:37.212Z,-8.02
2022-12-15T09:37:10.572Z,-7.99
2022-12-15T09:39:38.930Z,-7.92
2022-12-15T09:42:07.034Z,-7.86
2022-12-15T09:44:35.978Z,-7.80
2022-12-15T09:47:17.363Z,-7.71
2022-12-15T09:49:53.742Z,-7.64
2022-12-15T09:52:24.699Z,-7.56
2022-12-15T09:54:52.676Z,-7.50
2022-12-15T09:57:32.097Z,-7.42
2022-12-15T10:00:16.813Z,-7.25
2022-12-15T10:03:18.595Z,-6.96
2022-12-15T10:06:15.382Z,-6.79
2022-12-15T10:08:50.523Z,-6.60
2022-12-15T10:11:25.521Z,-6.28
2022-12-15T10:13:59.664Z,-5.77
2022-12-15T10:16:34.871Z,-5.21
2022-12-15T10:19:12.101Z,-4.66
2022-12-15T10:21:42.826Z,-4.21
2022-12-15T10:24:37.517Z,-3.72
2022-12-15T10:27:19.709Z,-3.28
2022-12-15T10:29:52.555Z,-2.94
2022-12-15T10:32:25.367Z,-2.55
2022-12-15T10:34:53.846Z,-2.20
2022-12-15T10:37:25.496Z,-1.88
2022-12-15T10:39:53.982Z,-1.61
2022-12-15T10:42:25.211Z,-1.32
2022-12-15T10:44:55.222Z,-1.06
2022-12-15T10:47:37.837Z,-0.86
2022-12-15T10:50:24.199Z,-0.72
2022-12-15T10:52:54.020Z,-0.59
2022-12-15T10:55:56.903Z,-0.66
2022-12-15T10:58:36.010Z,-0.68
2022-12-15T11:01:20.409Z,-0.58
2022-12-15T11:04:05.882Z,-0.52
2022-12-15T11:07:01.433Z,-0.46
2022-12-15T11:09:40.131Z,-0.31
2022-12-15T11:12:36.440Z,-0.12
2022-12-15T11:15:25.875Z,0.10
2022-12-15T11:18:01.749Z,0.29
2022-12-15T11:20:35.541Z,0.40
2022-12-15T11:23:12.256Z,0.55
2022-12-15T11:25:46.037Z,0.65
2022-12-15T11:28:19.329Z,0.81
2022-12-15T11:30:51.988Z,0.97
2022-12-15T11:33:19.770Z,1.15
2022-12-15T11:35:58.091Z,1.35
2022-12-15T11:38:33.700Z,1.54
2022-12-15T11:41:14.600Z,1.69
2022-12-15T11:44:06.253Z,1.66
2022-12-15T11:46:42.173Z,1.57
2022-12-15T11:49:29.270Z,1.61
2022-12-15T11:52:06.111Z,1.69
2022-12-15T11:54:41.295Z,1.67
2022-12-15T11:57:31.059Z,1.60
2022-12-15T12:00:06.829Z,1.47
2022-12-15T12:03:13.285Z,1.34
2022-12-15T12:06:06.961Z,1.20
2022-12-15T12:08:47.064Z,1.07
2022-12-15T12:11:24.588Z,0.90
2022-12-15T12:14:11.774Z,0.78
2022-12-15T12:16:45.407Z,0.67
2022-12-15T12:19:17.328Z,0.55
2022-12-15T12:21:51.074Z,0.45
2022-12-15T12:24:24.569Z,0.37
2022-12-15T12:26:58.262Z,0.28
2022-12-15T12:29:34.480Z,0.18
2022-12-15T12:32:08.987Z,0.11
2022-12-15T12:34:52.698Z,0.03
2022-12-15T12:37:44.695Z,-0.06
2022-12-15T12:40:21.782Z,-0.17
2022-12-15T12:42:55.460Z,-0.28
2022-12-15T12:45:28.722Z,-0.40
2022-12-15T12:48:02.411Z,-0.52
2022-12-15T12:50:33.170Z,-0.56
2022-12-15T12:53:03.365Z,-0.61
2022-12-15T12:55:40.164Z,-0.71
2022-12-15T12:58:41.622Z,-0.81
2022-12-15T13:01:28.711Z,-0.89
2022-12-15T13:04:08.742Z,-0.99
2022-12-15T13:07:02.314Z,-1.07
2022-12-15T13:09:39.877Z,-1.12
2022-12-15T13:12:50.711Z,-1.14
2022-12-15T13:15:34.793Z,-0.83
2022-12-15T13:18:08.657Z,-0.43
2022-12-15T13:20:38.563Z,-0.16
2022-12-15T13:23:38.288Z,0.01
2022-12-15T13:26:19.757Z,0.18
2022-12-15T13:28:52.952Z,0.42
2022-12-15T13:31:49.082Z,0.67
2022-12-15T13:34:25.115Z,0.85
2022-12-15T13:36:55.947Z,1.01
2022-12-15T13:39:51.919Z,1.16
2022-12-15T13:42:37.264Z,1.26
2022-12-15T13:45:34.310Z,1.39
2022-12-15T13:48:09.061Z,1.46
2022-12-15T13:50:45.054Z,1.51
2022-12-15T13:53:22.510Z,1.59
2022-12-15T13:56:08.133Z,1.65
2022-12-15T13:58:44.332Z,1.64
2022-12-15T14:01:27.251Z,1.45
2022-12-15T14:04:05.515Z,1.20
2022-12-15T14:06:39.497Z,0.97
2022-12-15T14:09:13.796Z,0.79
2022-12-15T14:11:53.351Z,0.62
2022-12-15T14:14:25.678Z,0.46
2022-12-15T14:16:57.158Z,0.33
2022-12-15T14:19:26.489Z,0.20
2022-12-15T14:21:57.379Z,0.08
2022-12-15T14:24:39.997Z,-0.03
2022-12-15T14:27:08.507Z,-0.15
2022-12-15T14:29:36.535Z,-0.25
2022-12-15T14:32:05.090Z,-0.33
2022-12-15T14:34:37.117Z,-0.47
2022-12-15T14:37:09.692Z,-0.59
2022-12-15T14:39:43.165Z,-0.70
2022-12-15T14:42:17.029Z,-0.81
2022-12-15T14:44:49.948Z,-0.92
2022-12-15T14:47:24.150Z,-1.02
2022-12-15T14:49:52.650Z,-1.08
2022-12-15T14:52:29.730Z,-1.17
2022-12-15T14:54:59.450Z,-1.23
2022-12-15T14:57:30.188Z,-1.29
2022-12-15T14:59:58.013Z,-1.35
2022-12-15T15:02:28.444Z,-1.41
2022-12-15T15:05:03.375Z,-1.43
2022-12-15T15:07:34.463Z,-1.49
2022-12-15T15:10:06.802Z,-1.53
2022-12-15T15:12:44.713Z,-1.57
2022-12-15T15:15:18.097Z,-1.60
2022-12-15T15:17:50.939Z,-1.63
2022-12-15T15:20:21.610Z,-1.65
2022-12-15T15:23:05.028Z,-1.71
2022-12-15T15:25:40.739Z,-1.73
2022-12-15T15:28:21.298Z,-1.78
2022-12-15T15:30:51.036Z,-1.80
2022-12-15T15:33:25.220Z,-1.82
2022-12-15T15:35:55.940Z,-1.86
2022-12-15T15:38:27.623Z,-1.89
2022-12-15T15:40:57.083Z,-1.90
2022-12-15T15:43:26.219Z,-1.93
2022-12-15T15:45:58.586Z,-1.96
2022-12-15T15:48:29.611Z,-1.99
2022-12-15T15:50:57.652Z,-2.02
2022-12-15T15:53:27.996Z,-2.06
2022-12-15T15:55:56.401Z,-2.10
2022-12-15T15:58:23.812Z,-2.15
2022-12-15T16:00:51.230Z,-2.19
2022-12-15T16:03:18.908Z,-2.24
2022-12-15T16:05:46.615Z,-2.29
2022-12-15T16:08:16.267Z,-2.33
2022-12-15T16:10:48.063Z,-2.37
2022-12-15T16:13:20.860Z,-2.43
2022-12-15T16:15:53.381Z,-2.49
2022-12-15T16:18:21.249Z,-2.56
2022-12-15T16:20:52.088Z,-2.63
2022-12-15T16:23:22.101Z,-2.71
2022-12-15T16:25:53.532Z,-2.79
2022-12-15T16:28:22.939Z,-2.86
2022-12-15T16:30:51.331Z,-2.89
2022-12-15T16:33:19.529Z,-2.93
2022-12-15T16:35:48.371Z,-3.00
2022-12-15T16:38:19.434Z,-3.02
2022-12-15T16:40:46.940Z,-3.03
2022-12-15T16:43:18.114Z,-3.04
2022-12-15T16:45:47.242Z,-3.05
2022-12-15T16:48:15.334Z,-3.06
2022-12-15T16:50:45.527Z,-3.08
2022-12-15T16:53:17.428Z,-3.09
2022-12-15T16:55:45.641Z,-3.10
2022-12-15T16:58:17.263Z,-3.15
2022-12-15T17:00:45.853Z,-3.17
2022-12-15T17:03:15.084Z,-3.16
2022-12-15T17:05:44.788Z,-3.19
2022-12-15T17:08:18.348Z,-3.22
2022-12-15T17:10:45.994Z,-3.26
2022-12-15T17:13:21.298Z,-3.27
2022-12-15T17:15:48.804Z,-3.30
2022-12-15T17:18:16.193Z,-3.33
2022-12-15T17:20:44.292Z,-3.35
2022-12-15T17:23:16.519Z,-3.39
2022-12-15T17:26:18.535Z,-3.43
2022-12-15T17:28:37.475Z,-3.45
2022-12-15T17:31:05.191Z,-3.49
2022-12-15T17:33:35.720Z,-3.53
2022-12-15T17:36:12.323Z,-3.54
2022-12-15T17:38:41.078Z,-3.55
2022-12-15T17:41:23.628Z,-3.57
2022-12-15T17:44:24.071Z,-3.59
2022-12-15T17:46:45.417Z,-3.61
2022-12-15T17:49:13.248Z,-3.63
2022-12-15T17:51:40.834Z,-3.66
2022-12-15T17:54:12.567Z,-3.68
2022-12-15T17:56:40.303Z,-3.69
2022-12-15T17:59:14.399Z,-3.70
2022-12-15T18:01:42.866Z,-3.72
2022-12-15T18:04:10.568Z,-3.74
2022-12-15T18:06:39.318Z,-3.78
2022-12-15T18:09:13.278Z,-3.77
2022-12-15T18:11:40.770Z,-3.76
2022-12-15T18:14:13.940Z,-3.75
2022-12-15T18:16:41.576Z,-3.76
2022-12-15T18:19:09.220Z,-3.78
2022-12-15T18:21:37.146Z,-3.78
2022-12-15T18:24:04.901Z,-3.79
2022-12-15T18:26:37.810Z,-3.79
2022-12-15T18:29:14.155Z,-3.78
2022-12-15T18:31:42.747Z,-3.79
2022-12-15T18:34:12.781Z,-3.81
2022-12-15T18:36:40.772Z,-3.83
2022-12-15T18:39:17.784Z,-3.85
2022-12-15T18:41:45.443Z,-3.86
2022-12-15T18:44:22.546Z,-3.89
2022-12-15T18:46:51.002Z,-3.89
2022-12-15T18:49:19.798Z,-3.89
2022-12-15T18:51:47.920Z,-3.92
2022-12-15T18:54:17.749Z,-3.95
2022-12-15T18:56:45.336Z,-3.96
2022-12-15T18:59:15.796Z,-3.99
2022-12-15T19:01:46.493Z,-3.99
2022-12-15T19:04:14.020Z,-3.99
2022-12-15T19:06:41.845Z,-4.00
2022-12-15T19:09:15.543Z,-4.02
2022-12-15T19:12:04.599Z,-4.06
2022-12-15T19:14:44.126Z,-4.06
2022-12-15T19:17:32.718Z,-4.07
2022-12-15T19:20:18.638Z,-4.09
2022-12-15T19:22:48.448Z,-4.10
2022-12-15T19:25:25.120Z,-4.12
2022-12-15T19:27:58.307Z,-4.14
2022-12-15T19:30:27.545Z,-4.16
2022-12-15T19:32:56.667Z,-4.16
2022-12-15T19:35:25.054Z,-4.20
2022-12-15T19:37:55.094Z,-4.22
2022-12-15T19:40:27.425Z,-4.23
2022-12-15T19:42:55.708Z,-4.22
2022-12-15T19:45:25.079Z,-4.23
2022-12-15T19:47:52.581Z,-4.25
2022-12-15T19:50:23.342Z,-4.29
2022-12-15T19:52:53.294Z,-4.29
2022-12-15T19:55:26.562Z,-4.31
2022-12-15T19:57:54.086Z,-4.31
2022-12-15T20:00:24.748Z,-4.33
2022-12-15T20:02:54.592Z,-4.33
2022-12-15T20:05:25.453Z,-4.34
2022-12-15T20:07:54.643Z,-4.33
2022-12-15T20:10:31.312Z,-4.35
2022-12-15T20:12:59.794Z,-4.35
2022-12-15T20:15:27.415Z,-4.38
2022-12-15T20:17:56.716Z,-4.39
2022-12-15T20:20:27.732Z,-4.40
2022-12-15T20:22:57.616Z,-4.42
2022-12-15T20:25:27.627Z,-4.42
2022-12-15T20:27:55.391Z,-4.42
2022-12-15T20:30:25.681Z,-4.44
2022-12-15T20:32:53.936Z,-4.45
2022-12-15T20:35:23.236Z,-4.47
2022-12-15T20:37:52.562Z,-4.51
2022-12-15T20:40:22.468Z,-4.53
2022-12-15T20:42:51.320Z,-4.56
2022-12-15T20:45:20.659Z,-4.57
2022-12-15T20:47:50.084Z,-4.59
2022-12-15T20:50:31.506Z,-4.61
2022-12-15T20:53:00.600Z,-4.63
2022-12-15T20:55:28.466Z,-4.65
2022-12-15T20:57:56.483Z,-4.67
2022-12-15T21:00:24.059Z,-4.69
2022-12-15T21:02:52.059Z,-4.69
2022-12-15T21:05:25.680Z,-4.70
2022-12-15T21:07:54.004Z,-4.72
2022-12-15T21:10:23.019Z,-4.76
2022-12-15T21:12:51.650Z,-4.75
2022-12-15T21:15:21.278Z,-4.75
2022-12-15T21:17:57.969Z,-4.75
2022-12-15T21:20:39.626Z,-4.76
2022-12-15T21:23:17.156Z,-4.78
2022-12-15T21:25:46.001Z,-4.79
2022-12-15T21:28:13.856Z,-4.81
2022-12-15T21:30:41.517Z,-4.83
2022-12-15T21:33:09.143Z,-4.85
2022-12-15T21:35:37.430Z,-4.89
2022-12-15T21:38:05.550Z,-4.92
2022-12-15T21:40:33.189Z,-4.93
2022-12-15T21:43:05.073Z,-4.93
2022-12-15T21:45:32.533Z,-4.97
2022-12-15T21:48:32.128Z,-5.00
2022-12-15T21:50:59.751Z,-5.01
2022-12-15T21:53:27.342Z,-5.04
2022-12-15T21:55:57.252Z,-5.06
2022-12-15T21:58:27.373Z,-5.10
2022-12-15T22:00:54.861Z,-5.12
2022-12-15T22:03:22.640Z,-5.14
2022-12-15T22:05:50.182Z,-5.15
2022-12-15T22:11:50.357Z,-5.21
2022-12-15T22:14:26.255Z,-5.21
2022-12-15T22:16:54.321Z,-5.22
2022-12-15T22:19:22.421Z,-5.25
2022-12-15T22:21:52.028Z,-5.28
2022-12-15T22:24:20.026Z,-5.30
2022-12-15T22:26:47.796Z,-5.30
2022-12-15T22:29:18.353Z,-5.32
2022-12-15T22:31:47.314Z,-5.32
2022-12-15T22:34:16.886Z,-5.32
2022-12-15T22:36:45.226Z,-5.34
2022-12-15T22:39:14.793Z,-5.37
2022-12-15T22:41:45.040Z,-5.39
2022-12-15T22:44:18.035Z,-5.43
2022-12-15T22:46:47.614Z,-5.46
2022-12-15T22:49:18.431Z,-5.47
2022-12-15T22:51:46.301Z,-5.48
2022-12-15T22:54:21.372Z,-5.51
2022-12-15T22:56:52.511Z,-5.52
2022-12-15T22:59:25.206Z,-5.55
2022-12-15T23:01:54.215Z,-5.57
2022-12-15T23:04:22.454Z,-5.60
2022-12-15T23:06:49.932Z,-5.61
2022-12-15T23:09:19.652Z,-5.60
2022-12-15T23:11:46.326Z,-5.63
2022-12-15T23:14:15.571Z,-5.66
2022-12-15T23:16:43.259Z,-5.67
2022-12-15T23:19:24.022Z,-5.69
2022-12-15T23:21:52.305Z,-5.71
2022-12-15T23:24:19.846Z,-5.73
2022-12-15T23:26:47.404Z,-5.74
2022-12-15T23:29:15.168Z,-5.75
2022-12-15T23:31:43.125Z,-5.75
2022-12-15T23:34:12.344Z,-5.76
2022-12-15T23:36:39.810Z,-5.78
2022-12-15T23:39:07.274Z,-5.78
2022-12-15T23:41:36.078Z,-5.80
2022-12-15T23:44:03.713Z,-5.81
2022-12-15T23:46:31.253Z,-5.83
2022-12-15T23:48:59.177Z,-5.85
2022-12-15T23:51:28.027Z,-5.88
2022-12-15T23:53:55.495Z,-5.90
2022-12-15T23:56:25.147Z,-5.90
2022-12-15T23:58:56.106Z,-5.93
